sensor_id;sensor_type;location;lat;lon;timestamp;pressure;altitude;pressure_sealevel;temperature;humidity
21623;BME280;10973;46.706;12.340;2022-10-24T00:01:20;87864.59;;;13.89;64.34
21623;BME280;10973;46.706;12.340;2022-10-24T00:03:49;87849.84;;;13.88;64.41
21623;BME280;10973;46.706;12.340;2022-10-24T00:06:18;87852.13;;;13.89;64.43
21623;BME280;10973;46.706;12.340;2022-10-24T00:08:47;87852.88;;;13.90;64.42
21623;BME280;10973;46.706;12.340;2022-10-24T00:11:23;87848.72;;;13.92;64.36
21623;BME280;10973;46.706;12.340;2022-10-24T00:13:53;87859.31;;;13.96;64.48
21623;BME280;10973;46.706;12.340;2022-10-24T00:16:21;87855.53;;;14.00;64.42
21623;BME280;10973;46.706;12.340;2022-10-24T00:18:48;87851.34;;;13.99;64.61
21623;BME280;10973;46.706;12.340;2022-10-24T00:21:16;87847.97;;;13.99;64.80
21623;BME280;10973;46.706;12.340;2022-10-24T00:23:44;87846.81;;;14.00;64.75
21623;BME280;10973;46.706;12.340;2022-10-24T00:26:12;87849.84;;;14.02;64.74
21623;BME280;10973;46.706;12.340;2022-10-24T00:28:40;87849.09;;;14.01;64.87
21623;BME280;10973;46.706;12.340;2022-10-24T00:31:13;87849.09;;;14.05;65.01
21623;BME280;10973;46.706;12.340;2022-10-24T00:33:42;87831.28;;;14.09;64.81
21623;BME280;10973;46.706;12.340;2022-10-24T00:36:17;87840.78;;;14.10;64.82
21623;BME280;10973;46.706;12.340;2022-10-24T00:38:45;87833.59;;;14.10;64.80
21623;BME280;10973;46.706;12.340;2022-10-24T00:41:28;87840.75;;;14.13;64.76
21623;BME280;10973;46.706;12.340;2022-10-24T00:44:24;87847.94;;;14.13;64.44
21623;BME280;10973;46.706;12.340;2022-10-24T00:52:37;87816.91;;;14.03;63.66
21623;BME280;10973;46.706;12.340;2022-10-24T00:55:09;87829.03;;;14.00;63.53
21623;BME280;10973;46.706;12.340;2022-10-24T00:57:53;87832.44;;;13.94;63.36
21623;BME280;10973;46.706;12.340;2022-10-24T01:00:30;87826.38;;;13.86;63.17
21623;BME280;10973;46.706;12.340;2022-10-24T01:02:59;87829.03;;;13.76;63.20
21623;BME280;10973;46.706;12.340;2022-10-24T01:05:42;87827.88;;;13.70;63.06
21623;BME280;10973;46.706;12.340;2022-10-24T01:08:42;87818.00;;;13.63;63.13
21623;BME280;10973;46.706;12.340;2022-10-24T01:17:24;87821.03;;;13.47;63.41
21623;BME280;10973;46.706;12.340;2022-10-24T01:23:24;87811.94;;;13.41;63.30
21623;BME280;10973;46.706;12.340;2022-10-24T01:31:46;87795.66;;;13.32;63.33
21623;BME280;10973;46.706;12.340;2022-10-24T01:34:43;87800.56;;;13.34;63.40
21623;BME280;10973;46.706;12.340;2022-10-24T01:37:20;87790.75;;;13.31;63.69
21623;BME280;10973;46.706;12.340;2022-10-24T01:40:02;87800.94;;;13.36;63.85
21623;BME280;10973;46.706;12.340;2022-10-24T01:42:35;87803.59;;;13.36;63.95
21623;BME280;10973;46.706;12.340;2022-10-24T01:45:06;87813.06;;;13.37;63.96
21623;BME280;10973;46.706;12.340;2022-10-24T01:47:43;87804.75;;;13.38;63.84
21623;BME280;10973;46.706;12.340;2022-10-24T01:50:17;87792.63;;;13.34;64.08
21623;BME280;10973;46.706;12.340;2022-10-24T01:52:47;87802.09;;;13.35;63.83
21623;BME280;10973;46.706;12.340;2022-10-24T01:55:14;87793.03;;;13.32;63.71
21623;BME280;10973;46.706;12.340;2022-10-24T01:57:41;87791.88;;;13.30;63.47
21623;BME280;10973;46.706;12.340;2022-10-24T02:00:21;87798.66;;;13.27;63.31
21623;BME280;10973;46.706;12.340;2022-10-24T02:02:59;87797.53;;;13.25;63.36
21623;BME280;10973;46.706;12.340;2022-10-24T02:05:39;87802.03;;;13.14;63.60
21623;BME280;10973;46.706;12.340;2022-10-24T02:08:14;87805.44;;;13.14;63.77
21623;BME280;10973;46.706;12.340;2022-10-24T02:10:52;87808.47;;;13.09;63.98
21623;BME280;10973;46.706;12.340;2022-10-24T02:13:45;87805.81;;;13.09;63.96
21623;BME280;10973;46.706;12.340;2022-10-24T02:16:18;87801.59;;;13.05;64.43
21623;BME280;10973;46.706;12.340;2022-10-24T02:18:52;87804.25;;;13.05;64.40
21623;BME280;10973;46.706;12.340;2022-10-24T02:21:27;87801.59;;;13.05;64.59
21623;BME280;10973;46.706;12.340;2022-10-24T02:24:19;87770.28;;;13.07;64.37
21623;BME280;10973;46.706;12.340;2022-10-24T02:27:02;87775.56;;;13.07;64.40
21623;BME280;10973;46.706;12.340;2022-10-24T02:30:25;87772.91;;;13.07;64.12
21623;BME280;10973;46.706;12.340;2022-10-24T02:32:42;87770.66;;;13.05;64.09
21623;BME280;10973;46.706;12.340;2022-10-24T02:35:14;87785.72;;;12.98;64.24
21623;BME280;10973;46.706;12.340;2022-10-24T02:37:49;87763.03;;;13.00;64.29
21623;BME280;10973;46.706;12.340;2022-10-24T02:40:20;87767.59;;;13.03;64.16
21623;BME280;10973;46.706;12.340;2022-10-24T02:42:52;87767.22;;;13.01;64.17
21623;BME280;10973;46.706;12.340;2022-10-24T02:45:22;87773.63;;;13.00;64.16
21623;BME280;10973;46.706;12.340;2022-10-24T02:47:55;87782.31;;;13.01;64.25
21623;BME280;10973;46.706;12.340;2022-10-24T02:50:25;87770.22;;;13.00;64.36
21623;BME280;10973;46.706;12.340;2022-10-24T02:52:53;87776.28;;;13.00;64.29
21623;BME280;10973;46.706;12.340;2022-10-24T02:55:20;87778.53;;;12.98;64.31
21623;BME280;10973;46.706;12.340;2022-10-24T02:57:47;87766.44;;;12.97;64.37
21623;BME280;10973;46.706;12.340;2022-10-24T03:00:15;87771.00;;;12.97;64.33
21623;BME280;10973;46.706;12.340;2022-10-24T03:02:42;87757.75;;;12.97;64.31
21623;BME280;10973;46.706;12.340;2022-10-24T03:05:09;87769.84;;;12.98;64.17
21623;BME280;10973;46.706;12.340;2022-10-24T03:07:36;87763.78;;;12.97;64.18
21623;BME280;10973;46.706;12.340;2022-10-24T03:10:04;87757.38;;;12.98;64.29
21623;BME280;10973;46.706;12.340;2022-10-24T03:12:31;87767.97;;;12.95;64.12
21623;BME280;10973;46.706;12.340;2022-10-24T03:14:59;87767.19;;;12.98;64.34
21623;BME280;10973;46.706;12.340;2022-10-24T03:17:26;87762.66;;;13.02;64.39
21623;BME280;10973;46.706;12.340;2022-10-24T03:19:53;87750.97;;;12.99;64.29
21623;BME280;10973;46.706;12.340;2022-10-24T03:22:20;87767.56;;;12.96;64.69
21623;BME280;10973;46.706;12.340;2022-10-24T03:24:48;87759.63;;;12.96;64.53
21623;BME280;10973;46.706;12.340;2022-10-24T03:27:22;87750.19;;;12.99;64.56
21623;BME280;10973;46.706;12.340;2022-10-24T03:29:49;87755.09;;;13.00;64.64
21623;BME280;10973;46.706;12.340;2022-10-24T03:32:16;87752.47;;;13.00;64.91
21623;BME280;10973;46.706;12.340;2022-10-24T03:34:44;87755.09;;;13.00;64.58
21623;BME280;10973;46.706;12.340;2022-10-24T03:37:11;87763.06;;;13.04;64.77
21623;BME280;10973;46.706;12.340;2022-10-24T03:39:38;87756.63;;;13.05;64.67
21623;BME280;10973;46.706;12.340;2022-10-24T03:42:05;87755.53;;;13.06;64.90
21623;BME280;10973;46.706;12.340;2022-10-24T03:44:32;87745.69;;;13.06;64.90
21623;BME280;10973;46.706;12.340;2022-10-24T03:47:00;87758.19;;;13.09;64.91
21623;BME280;10973;46.706;12.340;2022-10-24T03:49:27;87752.50;;;13.07;64.87
21623;BME280;10973;46.706;12.340;2022-10-24T03:51:54;87749.09;;;13.07;64.76
21623;BME280;10973;46.706;12.340;2022-10-24T03:54:21;87744.97;;;13.06;64.68
21623;BME280;10973;46.706;12.340;2022-10-24T03:56:49;87759.69;;;13.07;65.12
21623;BME280;10973;46.706;12.340;2022-10-24T03:59:16;87750.25;;;13.09;64.95
21623;BME280;10973;46.706;12.340;2022-10-24T04:01:43;87750.25;;;13.09;64.72
21623;BME280;10973;46.706;12.340;2022-10-24T04:04:11;87757.81;;;13.11;64.80
21623;BME280;10973;46.706;12.340;2022-10-24T04:06:38;87752.50;;;13.11;64.80
21623;BME280;10973;46.706;12.340;2022-10-24T04:09:06;87750.28;;;13.13;64.97
21623;BME280;10973;46.706;12.340;2022-10-24T04:11:33;87741.53;;;13.09;65.19
21623;BME280;10973;46.706;12.340;2022-10-24T04:14:00;87747.59;;;13.09;65.22
21623;BME280;10973;46.706;12.340;2022-10-24T04:16:28;87752.16;;;13.12;65.38
21623;BME280;10973;46.706;12.340;2022-10-24T04:18:56;87752.50;;;13.11;65.17
21623;BME280;10973;46.706;12.340;2022-10-24T04:21:23;87748.38;;;13.10;65.15
21623;BME280;10973;46.706;12.340;2022-10-24T04:23:50;87760.44;;;13.11;65.14
21623;BME280;10973;46.706;12.340;2022-10-24T04:26:17;87748.75;;;13.12;64.93
21623;BME280;10973;46.706;12.340;2022-10-24T04:28:45;87757.44;;;13.12;65.09
21623;BME280;10973;46.706;12.340;2022-10-24T04:31:13;87756.31;;;13.10;64.94
21623;BME280;10973;46.706;12.340;2022-10-24T04:33:45;87748.34;;;13.06;64.97
21623;BME280;10973;46.706;12.340;2022-10-24T04:36:13;87755.88;;;13.04;65.07
21623;BME280;10973;46.706;12.340;2022-10-24T04:38:40;87733.56;;;13.02;65.19
21623;BME280;10973;46.706;12.340;2022-10-24T04:41:07;87743.41;;;13.05;64.98
21623;BME280;10973;46.706;12.340;2022-10-24T04:43:39;87741.91;;;13.04;64.98
21623;BME280;10973;46.706;12.340;2022-10-24T04:46:07;87720.34;;;13.02;64.89
21623;BME280;10973;46.706;12.340;2022-10-24T04:48:34;87724.50;;;12.99;65.03
21623;BME280;10973;46.706;12.340;2022-10-24T04:51:02;87724.88;;;13.01;64.97
21623;BME280;10973;46.706;12.340;2022-10-24T04:53:29;87718.09;;;13.04;65.07
21623;BME280;10973;46.706;12.340;2022-10-24T04:55:56;87724.13;;;13.04;65.24
21623;BME280;10973;46.706;12.340;2022-10-24T04:58:24;87712.81;;;13.07;65.11
21623;BME280;10973;46.706;12.340;2022-10-24T05:00:51;87701.47;;;13.07;65.18
21623;BME280;10973;46.706;12.340;2022-10-24T05:03:19;87704.16;;;13.10;65.32
21623;BME280;10973;46.706;12.340;2022-10-24T05:05:47;87700.00;;;13.13;65.23
21623;BME280;10973;46.706;12.340;2022-10-24T05:08:16;87702.63;;;13.16;65.36
21623;BME280;10973;46.706;12.340;2022-10-24T05:10:43;87703.41;;;13.17;65.33
21623;BME280;10973;46.706;12.340;2022-10-24T05:13:11;87697.34;;;13.23;65.54
21623;BME280;10973;46.706;12.340;2022-10-24T05:15:38;87687.13;;;13.29;65.27
21623;BME280;10973;46.706;12.340;2022-10-24T05:18:06;87693.56;;;13.31;65.03
21623;BME280;10973;46.706;12.340;2022-10-24T05:20:33;87698.84;;;13.31;65.04
21623;BME280;10973;46.706;12.340;2022-10-24T05:23:00;87696.97;;;13.32;64.96
21623;BME280;10973;46.706;12.340;2022-10-24T05:25:28;87702.25;;;13.32;64.89
21623;BME280;10973;46.706;12.340;2022-10-24T05:27:55;87694.31;;;13.25;64.86
21623;BME280;10973;46.706;12.340;2022-10-24T05:30:22;87704.13;;;13.24;64.68
21623;BME280;10973;46.706;12.340;2022-10-24T05:32:50;87696.22;;;13.21;64.63
21623;BME280;10973;46.706;12.340;2022-10-24T05:35:18;87692.81;;;13.17;64.63
21623;BME280;10973;46.706;12.340;2022-10-24T05:37:45;87693.19;;;13.12;64.74
21623;BME280;10973;46.706;12.340;2022-10-24T05:40:13;87709.44;;;13.10;64.69
21623;BME280;10973;46.706;12.340;2022-10-24T05:42:40;87701.84;;;13.09;64.75
21623;BME280;10973;46.706;12.340;2022-10-24T05:45:09;87699.56;;;13.04;64.89
21623;BME280;10973;46.706;12.340;2022-10-24T05:47:37;87702.59;;;12.99;64.96
21623;BME280;10973;46.706;12.340;2022-10-24T05:50:05;87706.00;;;12.99;65.04
21623;BME280;10973;46.706;12.340;2022-10-24T05:52:33;87693.13;;;12.98;64.99
21623;BME280;10973;46.706;12.340;2022-10-24T05:55:00;87686.34;;;12.97;65.09
21623;BME280;10973;46.706;12.340;2022-10-24T05:57:35;87698.78;;;12.96;65.11
21623;BME280;10973;46.706;12.340;2022-10-24T06:00:12;87687.06;;;12.97;64.99
21623;BME280;10973;46.706;12.340;2022-10-24T06:02:40;87690.09;;;12.96;65.11
21623;BME280;10973;46.706;12.340;2022-10-24T06:05:09;87694.63;;;12.95;65.13
21623;BME280;10973;46.706;12.340;2022-10-24T06:07:37;87705.22;;;12.95;64.88
21623;BME280;10973;46.706;12.340;2022-10-24T06:10:06;87703.34;;;12.92;65.04
21623;BME280;10973;46.706;12.340;2022-10-24T06:12:34;87696.53;;;12.95;65.15
21623;BME280;10973;46.706;12.340;2022-10-24T06:15:04;87702.22;;;12.97;65.12
21623;BME280;10973;46.706;12.340;2022-10-24T06:17:32;87697.66;;;12.94;65.41
21623;BME280;10973;46.706;12.340;2022-10-24T06:19:59;87705.59;;;12.94;65.51
21623;BME280;10973;46.706;12.340;2022-10-24T06:22:27;87710.13;;;12.93;65.52
21623;BME280;10973;46.706;12.340;2022-10-24T06:24:55;87695.38;;;12.96;65.52
21623;BME280;10973;46.706;12.340;2022-10-24T06:27:22;87708.63;;;12.99;65.60
21623;BME280;10973;46.706;12.340;2022-10-24T06:29:50;87694.28;;;13.04;65.55
21623;BME280;10973;46.706;12.340;2022-10-24T06:32:17;87712.81;;;13.11;65.59
21623;BME280;10973;46.706;12.340;2022-10-24T06:34:44;87707.53;;;13.14;65.53
21623;BME280;10973;46.706;12.340;2022-10-24T06:37:12;87707.91;;;13.20;65.89
21623;BME280;10973;46.706;12.340;2022-10-24T06:39:39;87698.84;;;13.24;66.39
21623;BME280;10973;46.706;12.340;2022-10-24T06:42:06;87710.22;;;13.35;66.95
21623;BME280;10973;46.706;12.340;2022-10-24T06:44:34;87710.59;;;13.48;66.67
21623;BME280;10973;46.706;12.340;2022-10-24T06:47:01;87721.94;;;13.59;66.36
21623;BME280;10973;46.706;12.340;2022-10-24T06:49:29;87708.69;;;13.66;66.45
21623;BME280;10973;46.706;12.340;2022-10-24T06:51:57;87707.94;;;13.76;66.21
21623;BME280;10973;46.706;12.340;2022-10-24T06:54:24;87706.78;;;13.84;65.91
21623;BME280;10973;46.706;12.340;2022-10-24T06:56:56;87709.81;;;13.86;65.98
21623;BME280;10973;46.706;12.340;2022-10-24T06:59:23;87709.44;;;13.84;66.15
21623;BME280;10973;46.706;12.340;2022-10-24T07:01:51;87692.78;;;13.94;65.83
21623;BME280;10973;46.706;12.340;2022-10-24T07:04:18;87703.34;;;14.05;65.49
21623;BME280;10973;46.706;12.340;2022-10-24T07:06:45;87696.16;;;14.05;65.55
21623;BME280;10973;46.706;12.340;2022-10-24T07:09:12;87707.88;;;14.15;65.27
21623;BME280;10973;46.706;12.340;2022-10-24T07:11:43;87710.13;;;14.23;65.14
21623;BME280;10973;46.706;12.340;2022-10-24T07:14:11;87707.09;;;14.32;64.89
21623;BME280;10973;46.706;12.340;2022-10-24T07:16:38;87704.03;;;14.41;64.88
21623;BME280;10973;46.706;12.340;2022-10-24T07:19:06;87702.50;;;14.47;64.50
21623;BME280;10973;46.706;12.340;2022-10-24T07:21:34;87703.25;;;14.51;64.38
21623;BME280;10973;46.706;12.340;2022-10-24T07:24:02;87707.00;;;14.57;64.39
21623;BME280;10973;46.706;12.340;2022-10-24T07:26:30;87709.25;;;14.62;64.08
21623;BME280;10973;46.706;12.340;2022-10-24T07:28:59;87690.66;;;14.69;63.99
21623;BME280;10973;46.706;12.340;2022-10-24T07:31:31;87695.19;;;14.75;64.04
21623;BME280;10973;46.706;12.340;2022-10-24T07:34:01;87688.31;;;14.85;63.77
21623;BME280;10973;46.706;12.340;2022-10-24T07:36:29;87687.91;;;14.90;63.60
21623;BME280;10973;46.706;12.340;2022-10-24T07:38:58;87692.81;;;14.91;63.38
21623;BME280;10973;46.706;12.340;2022-10-24T07:41:28;87693.50;;;15.02;62.84
21623;BME280;10973;46.706;12.340;2022-10-24T07:43:58;87687.78;;;15.11;62.67
21623;BME280;10973;46.706;12.340;2022-10-24T07:46:26;87688.13;;;15.17;62.54
21623;BME280;10973;46.706;12.340;2022-10-24T07:48:53;87687.00;;;15.14;62.54
21623;BME280;10973;46.706;12.340;2022-10-24T07:51:21;87696.41;;;15.22;62.33
21623;BME280;10973;46.706;12.340;2022-10-24T07:53:49;87697.59;;;15.21;62.15
21623;BME280;10973;46.706;12.340;2022-10-24T07:56:16;87697.19;;;15.26;61.55
21623;BME280;10973;46.706;12.340;2022-10-24T07:58:46;87692.59;;;15.27;61.73
21623;BME280;10973;46.706;12.340;2022-10-24T08:01:14;87689.94;;;15.30;61.81
21623;BME280;10973;46.706;12.340;2022-10-24T08:03:42;87696.72;;;15.35;61.63
21623;BME280;10973;46.706;12.340;2022-10-24T08:06:23;87699.34;;;15.38;61.46
21623;BME280;10973;46.706;12.340;2022-10-24T08:08:51;87707.31;;;15.42;61.22
21623;BME280;10973;46.706;12.340;2022-10-24T08:11:23;87701.22;;;15.48;60.96
21623;BME280;10973;46.706;12.340;2022-10-24T08:13:53;87700.03;;;15.53;60.99
21623;BME280;10973;46.706;12.340;2022-10-24T08:16:22;87697.34;;;15.56;60.99
21623;BME280;10973;46.706;12.340;2022-10-24T08:18:52;87698.09;;;15.60;60.68
21623;BME280;10973;46.706;12.340;2022-10-24T08:21:21;87707.16;;;15.66;60.37
21623;BME280;10973;46.706;12.340;2022-10-24T08:23:51;87694.63;;;15.67;60.66
21623;BME280;10973;46.706;12.340;2022-10-24T08:26:23;87682.47;;;15.66;60.65
21623;BME280;10973;46.706;12.340;2022-10-24T08:28:51;87691.16;;;15.70;60.56
21623;BME280;10973;46.706;12.340;2022-10-24T08:31:22;87687.41;;;15.67;60.18
21623;BME280;10973;46.706;12.340;2022-10-24T08:33:54;87680.53;;;15.74;60.09
21623;BME280;10973;46.706;12.340;2022-10-24T08:36:30;87691.56;;;15.68;60.69
21623;BME280;10973;46.706;12.340;2022-10-24T08:38:58;87682.38;;;15.77;60.64
21623;BME280;10973;46.706;12.340;2022-10-24T08:41:35;87679.06;;;15.69;60.33
21623;BME280;10973;46.706;12.340;2022-10-24T08:44:15;87674.88;;;15.68;60.29
21623;BME280;10973;46.706;12.340;2022-10-24T08:52:32;87677.59;;;16.02;59.62
21623;BME280;10973;46.706;12.340;2022-10-24T08:55:22;87661.63;;;16.05;59.47
21623;BME280;10973;46.706;12.340;2022-10-24T08:58:27;87661.63;;;16.05;59.87
21623;BME280;10973;46.706;12.340;2022-10-24T09:01:00;87661.94;;;16.14;59.32
21623;BME280;10973;46.706;12.340;2022-10-24T09:03:41;87659.19;;;16.21;59.42
21623;BME280;10973;46.706;12.340;2022-10-24T09:06:28;87658.34;;;16.28;58.49
21623;BME280;10973;46.706;12.340;2022-10-24T09:09:09;87665.25;;;16.22;58.39
21623;BME280;10973;46.706;12.340;2022-10-24T09:11:54;87656.13;;;16.23;58.46
21623;BME280;10973;46.706;12.340;2022-10-24T09:14:28;87662.91;;;16.27;58.50
21623;BME280;10973;46.706;12.340;2022-10-24T09:17:26;87652.72;;;16.22;58.60
21623;BME280;10973;46.706;12.340;2022-10-24T09:20:23;87657.44;;;16.04;58.45
21623;BME280;10973;46.706;12.340;2022-10-24T09:22:47;87660.81;;;16.12;58.54
21623;BME280;10973;46.706;12.340;2022-10-24T09:25:27;87649.41;;;16.11;58.54
21623;BME280;10973;46.706;12.340;2022-10-24T09:27:58;87656.69;;;16.07;58.44
21623;BME280;10973;46.706;12.340;2022-10-24T09:30:27;87655.50;;;16.12;58.82
21623;BME280;10973;46.706;12.340;2022-10-24T09:33:21;87653.91;;;16.18;58.58
21623;BME280;10973;46.706;12.340;2022-10-24T09:35:53;87670.53;;;16.25;58.03
21623;BME280;10973;46.706;12.340;2022-10-24T09:38:35;87658.66;;;16.33;58.20
21623;BME280;10973;46.706;12.340;2022-10-24T09:41:24;87655.78;;;16.21;57.69
21623;BME280;10973;46.706;12.340;2022-10-24T09:43:59;87638.28;;;16.23;58.15
21623;BME280;10973;46.706;12.340;2022-10-24T09:46:34;87655.63;;;16.35;58.02
21623;BME280;10973;46.706;12.340;2022-10-24T09:51:49;87652.91;;;16.42;57.63
21623;BME280;10973;46.706;12.340;2022-10-24T09:54:31;87648.19;;;16.57;57.57
21623;BME280;10973;46.706;12.340;2022-10-24T09:59:57;87639.13;;;16.51;57.53
21623;BME280;10973;46.706;12.340;2022-10-24T10:02:28;87635.22;;;16.59;56.68
21623;BME280;10973;46.706;12.340;2022-10-24T10:07:38;87639.69;;;16.65;56.84
21623;BME280;10973;46.706;12.340;2022-10-24T10:10:34;87625.66;;;16.65;56.82
21623;BME280;10973;46.706;12.340;2022-10-24T10:13:20;87625.19;;;16.70;56.67
21623;BME280;10973;46.706;12.340;2022-10-24T10:15:58;87627.16;;;16.66;56.65
21623;BME280;10973;46.706;12.340;2022-10-24T10:21:21;87611.88;;;16.73;56.34
21623;BME280;10973;46.706;12.340;2022-10-24T10:23:53;87614.44;;;16.80;56.18
21623;BME280;10973;46.706;12.340;2022-10-24T10:26:27;87624.25;;;16.83;55.92
21623;BME280;10973;46.706;12.340;2022-10-24T10:29:03;87619.78;;;16.77;56.04
21623;BME280;10973;46.706;12.340;2022-10-24T10:31:45;87611.88;;;16.73;55.69
21623;BME280;10973;46.706;12.340;2022-10-24T10:39:53;87607.16;;;16.84;56.37
21623;BME280;10973;46.706;12.340;2022-10-24T10:45:47;87604.56;;;16.81;56.04
21623;BME280;10973;46.706;12.340;2022-10-24T10:48:29;87598.41;;;16.84;56.00
21623;BME280;10973;46.706;12.340;2022-10-24T10:51:08;87592.72;;;16.82;55.77
21623;BME280;10973;46.706;12.340;2022-10-24T10:56:59;87598.16;;;16.75;55.93
21623;BME280;10973;46.706;12.340;2022-10-24T11:00:00;87587.47;;;16.78;56.26
21623;BME280;10973;46.706;12.340;2022-10-24T11:11:13;87584.41;;;16.80;55.92
21623;BME280;10973;46.706;12.340;2022-10-24T11:14:00;87591.19;;;16.84;55.80
21623;BME280;10973;46.706;12.340;2022-10-24T11:16:30;87593.91;;;16.81;55.84
21623;BME280;10973;46.706;12.340;2022-10-24T11:19:17;87576.91;;;16.98;55.69
21623;BME280;10973;46.706;12.340;2022-10-24T11:21:48;87577.22;;;17.03;55.64
21623;BME280;10973;46.706;12.340;2022-10-24T11:24:23;87565.75;;;17.06;55.63
21623;BME280;10973;46.706;12.340;2022-10-24T11:27:31;87569.25;;;17.03;54.99
21623;BME280;10973;46.706;12.340;2022-10-24T11:30:12;87569.69;;;16.98;54.62
21623;BME280;10973;46.706;12.340;2022-10-24T11:32:57;87562.69;;;17.08;54.97
21623;BME280;10973;46.706;12.340;2022-10-24T11:35:32;87558.06;;;17.12;54.79
21623;BME280;10973;46.706;12.340;2022-10-24T11:38:22;87544.09;;;17.04;54.94
21623;BME280;10973;46.706;12.340;2022-10-24T11:40:58;87549.00;;;17.06;54.95
21623;BME280;10973;46.706;12.340;2022-10-24T11:43:36;87542.63;;;17.03;54.63
21623;BME280;10973;46.706;12.340;2022-10-24T11:46:16;87551.22;;;17.11;54.79
21623;BME280;10973;46.706;12.340;2022-10-24T11:48:55;87532.81;;;16.97;54.22
21623;BME280;10973;46.706;12.340;2022-10-24T11:54:59;87551.44;;;16.97;54.74
21623;BME280;10973;46.706;12.340;2022-10-24T11:57:29;87551.41;;;16.74;55.19
21623;BME280;10973;46.706;12.340;2022-10-24T11:59:58;87558.88;;;16.82;55.29
21623;BME280;10973;46.706;12.340;2022-10-24T12:06:01;87537.00;;;16.71;55.42
21623;BME280;10973;46.706;12.340;2022-10-24T12:09:16;87524.81;;;16.74;55.60
21623;BME280;10973;46.706;12.340;2022-10-24T12:18:38;87534.09;;;16.62;55.28
21623;BME280;10973;46.706;12.340;2022-10-24T12:21:13;87526.13;;;16.59;55.73
21623;BME280;10973;46.706;12.340;2022-10-24T12:23:58;87513.84;;;16.68;55.66
21623;BME280;10973;46.706;12.340;2022-10-24T12:26:34;87512.22;;;16.74;55.65
21623;BME280;10973;46.706;12.340;2022-10-24T12:29:06;87496.72;;;16.69;55.12
21623;BME280;10973;46.706;12.340;2022-10-24T12:31:46;87495.56;;;16.70;55.01
21623;BME280;10973;46.706;12.340;2022-10-24T12:37:22;87483.88;;;16.64;55.18
21623;BME280;10973;46.706;12.340;2022-10-24T12:39:56;87485.50;;;16.58;55.18
21623;BME280;10973;46.706;12.340;2022-10-24T12:53:41;87471.16;;;16.49;55.51
21623;BME280;10973;46.706;12.340;2022-10-24T12:56:11;87472.31;;;16.48;55.52
21623;BME280;10973;46.706;12.340;2022-10-24T12:58:41;87464.03;;;16.42;55.53
21623;BME280;10973;46.706;12.340;2022-10-24T13:01:23;87461.50;;;16.31;56.42
21623;BME280;10973;46.706;12.340;2022-10-24T13:07:27;87452.78;;;16.31;56.21
21623;BME280;10973;46.706;12.340;2022-10-24T13:40:30;87413.94;;;16.37;56.94
21623;BME280;10973;46.706;12.340;2022-10-24T13:43:25;87427.63;;;16.35;56.83
21623;BME280;10973;46.706;12.340;2022-10-24T13:46:00;87407.94;;;16.33;57.46
21623;BME280;10973;46.706;12.340;2022-10-24T13:48:33;87417.41;;;16.34;57.47
21623;BME280;10973;46.706;12.340;2022-10-24T13:53:48;87418.50;;;16.36;57.48
21623;BME280;10973;46.706;12.340;2022-10-24T13:56:18;87409.13;;;16.28;57.46
21623;BME280;10973;46.706;12.340;2022-10-24T13:58:48;87415.28;;;16.22;57.76
21623;BME280;10973;46.706;12.340;2022-10-24T14:01:27;87408.50;;;16.17;57.34
21623;BME280;10973;46.706;12.340;2022-10-24T14:03:58;87413.50;;;16.15;57.70
21623;BME280;10973;46.706;12.340;2022-10-24T14:06:30;87410.38;;;16.20;57.73
21623;BME280;10973;46.706;12.340;2022-10-24T14:09:05;87406.28;;;16.16;57.51
21623;BME280;10973;46.706;12.340;2022-10-24T14:11:43;87418.53;;;16.10;57.66
21623;BME280;10973;46.706;12.340;2022-10-24T14:14:25;87409.38;;;16.11;57.63
21623;BME280;10973;46.706;12.340;2022-10-24T14:17:21;87408.16;;;16.15;57.37
21623;BME280;10973;46.706;12.340;2022-10-24T14:20:16;87427.19;;;16.14;57.64
21623;BME280;10973;46.706;12.340;2022-10-24T14:22:45;87419.22;;;15.84;58.36
21623;BME280;10973;46.706;12.340;2022-10-24T14:25:33;87425.13;;;15.98;58.11
21623;BME280;10973;46.706;12.340;2022-10-24T14:28:14;87430.72;;;16.04;57.92
21623;BME280;10973;46.706;12.340;2022-10-24T14:30:55;87434.81;;;16.12;57.57
21623;BME280;10973;46.706;12.340;2022-10-24T14:33:33;87420.25;;;16.20;57.66
21623;BME280;10973;46.706;12.340;2022-10-24T14:36:07;87430.84;;;16.23;57.87
21623;BME280;10973;46.706;12.340;2022-10-24T14:38:35;87406.09;;;16.26;57.96
21623;BME280;10973;46.706;12.340;2022-10-24T14:41:06;87419.81;;;16.25;57.91
21623;BME280;10973;46.706;12.340;2022-10-24T14:43:40;87427.03;;;16.24;57.76
21623;BME280;10973;46.706;12.340;2022-10-24T14:48:42;87435.41;;;16.23;57.46
21623;BME280;10973;46.706;12.340;2022-10-24T14:53:50;87418.94;;;16.31;57.91
21623;BME280;10973;46.706;12.340;2022-10-24T14:56:33;87422.06;;;16.26;57.86
21623;BME280;10973;46.706;12.340;2022-10-24T14:59:13;87416.47;;;16.21;58.21
21623;BME280;10973;46.706;12.340;2022-10-24T15:02:01;87429.00;;;16.20;58.66
21623;BME280;10973;46.706;12.340;2022-10-24T15:04:39;87421.78;;;16.21;58.97
21623;BME280;10973;46.706;12.340;2022-10-24T15:07:35;87433.16;;;16.21;58.94
21623;BME280;10973;46.706;12.340;2022-10-24T15:13:08;87409.72;;;16.13;59.11
21623;BME280;10973;46.706;12.340;2022-10-24T15:15:58;87417.31;;;16.14;59.30
21623;BME280;10973;46.706;12.340;2022-10-24T15:18:41;87421.56;;;16.08;59.35
21623;BME280;10973;46.706;12.340;2022-10-24T15:21:16;87396.91;;;16.08;59.22
21623;BME280;10973;46.706;12.340;2022-10-24T15:23:48;87396.91;;;16.08;59.39
21623;BME280;10973;46.706;12.340;2022-10-24T15:26:39;87395.72;;;16.09;59.75
21623;BME280;10973;46.706;12.340;2022-10-24T15:31:44;87422.88;;;15.97;60.93
21623;BME280;10973;46.706;12.340;2022-10-24T15:34:18;87432.34;;;15.98;61.13
21623;BME280;10973;46.706;12.340;2022-10-24T15:36:48;87440.38;;;15.94;61.27